createdAt,value
2018-04-22T00:00:03.582Z,17.10
2018-04-22T00:02:29.780Z,17.00
2018-04-22T00:04:56.091Z,16.90
2018-04-22T00:07:22.304Z,16.90
2018-04-22T00:09:48.554Z,16.90
2018-04-22T00:12:14.751Z,16.80
2018-04-22T00:14:40.988Z,16.80
2018-04-22T00:17:07.216Z,16.70
2018-04-22T00:19:33.448Z,16.70
2018-04-22T00:21:59.662Z,16.70
2018-04-22T00:24:25.867Z,16.70
2018-04-22T00:26:52.256Z,16.70
2018-04-22T00:29:18.840Z,16.70
2018-04-22T00:31:45.058Z,16.70
2018-04-22T00:34:11.364Z,16.60
2018-04-22T00:36:37.644Z,16.60
2018-04-22T00:39:03.950Z,16.60
2018-04-22T00:41:30.145Z,16.60
2018-04-22T00:43:56.653Z,16.50
2018-04-22T00:46:22.869Z,16.50
2018-04-22T00:48:49.075Z,16.50
2018-04-22T00:51:15.320Z,16.50
2018-04-22T00:53:53.803Z,16.40
2018-04-22T00:56:20.061Z,16.40
2018-04-22T00:58:46.267Z,16.40
2018-04-22T01:01:12.529Z,16.40
2018-04-22T01:03:38.794Z,16.40
2018-04-22T01:06:05.401Z,16.40
2018-04-22T01:08:31.648Z,16.30
2018-04-22T01:10:58.253Z,16.20
2018-04-22T01:13:24.466Z,16.20
2018-04-22T01:15:50.697Z,16.10
2018-04-22T01:18:16.955Z,16.10
2018-04-22T01:20:43.209Z,16.00
2018-04-22T01:23:09.788Z,16.00
2018-04-22T01:25:36.031Z,16.00
2018-04-22T01:28:02.255Z,15.80
2018-04-22T01:30:28.488Z,15.80
2018-04-22T01:32:54.711Z,15.80
2018-04-22T01:35:20.961Z,15.80
2018-04-22T01:37:47.253Z,15.80
2018-04-22T01:40:13.477Z,15.80
2018-04-22T01:42:39.677Z,15.80
2018-04-22T01:45:05.912Z,15.80
2018-04-22T01:47:32.210Z,15.80
2018-04-22T01:49:58.426Z,15.70
2018-04-22T01:52:24.693Z,15.70
2018-04-22T01:54:51.526Z,15.60
2018-04-22T01:57:17.760Z,15.60
2018-04-22T01:59:44.233Z,15.60
2018-04-22T02:02:10.491Z,15.50
2018-04-22T02:04:36.711Z,15.40
2018-04-22T02:07:04.292Z,15.40
2018-04-22T02:09:31.235Z,15.40
2018-04-22T02:11:57.885Z,15.40
2018-04-22T02:14:24.121Z,15.30
2018-04-22T02:16:50.352Z,15.30
2018-04-22T02:19:16.602Z,15.30
2018-04-22T02:21:42.856Z,15.30
2018-04-22T02:24:09.101Z,15.20
2018-04-22T02:26:35.388Z,15.20
2018-04-22T02:29:01.621Z,15.20
2018-04-22T02:31:28.659Z,15.20
2018-04-22T02:33:54.900Z,15.10
2018-04-22T02:36:21.157Z,15.10
2018-04-22T02:38:47.378Z,15.10
2018-04-22T02:41:13.641Z,15.10
2018-04-22T02:43:39.880Z,15.20
2018-04-22T02:46:06.101Z,14.90
2018-04-22T02:48:32.332Z,14.80
2018-04-22T02:50:58.552Z,14.90
2018-04-22T02:53:25.171Z,14.90
2018-04-22T02:55:51.393Z,14.90
2018-04-22T02:58:17.594Z,15.00
2018-04-22T03:00:43.844Z,15.00
2018-04-22T03:03:10.284Z,15.00
2018-04-22T03:05:36.559Z,15.00
2018-04-22T03:08:02.772Z,15.10
2018-04-22T03:10:28.988Z,15.00
2018-04-22T03:12:56.465Z,15.00
2018-04-22T03:15:22.676Z,15.00
2018-04-22T03:17:49.574Z,15.00
2018-04-22T03:20:15.833Z,15.00
2018-04-22T03:22:42.072Z,15.00
2018-04-22T03:25:08.330Z,15.00
2018-04-22T03:27:34.597Z,15.00
2018-04-22T03:30:00.826Z,14.90
2018-04-22T03:32:27.066Z,14.90
2018-04-22T03:34:53.359Z,14.80
2018-04-22T03:37:19.626Z,14.80
2018-04-22T03:39:45.835Z,14.80
2018-04-22T03:42:12.088Z,14.70
2018-04-22T03:44:38.337Z,14.70
2018-04-22T03:47:04.591Z,14.70
2018-04-22T03:49:37.814Z,14.60
2018-04-22T03:52:04.065Z,14.60
2018-04-22T03:54:37.261Z,14.50
2018-04-22T03:57:03.521Z,14.50
2018-04-22T03:59:29.744Z,14.50
2018-04-22T04:01:56.001Z,14.40
2018-04-22T04:04:22.225Z,14.40
2018-04-22T04:06:48.452Z,14.40
2018-04-22T04:09:14.689Z,14.40
2018-04-22T04:11:40.920Z,14.30
2018-04-22T04:14:07.152Z,14.30
2018-04-22T04:16:33.401Z,14.30
2018-04-22T04:19:11.912Z,14.30
2018-04-22T04:21:50.216Z,14.20
2018-04-22T04:24:37.338Z,14.10
2018-04-22T04:40:26.092Z,13.90
2018-04-22T04:42:52.319Z,13.80
2018-04-22T04:45:18.549Z,13.80
2018-04-22T04:47:45.577Z,13.80
2018-04-22T04:50:11.773Z,13.80
2018-04-22T04:52:38.058Z,13.90
2018-04-22T04:55:04.296Z,14.00
2018-04-22T04:57:30.913Z,14.10
2018-04-22T04:59:57.204Z,14.10
2018-04-22T05:02:23.417Z,14.10
2018-04-22T05:04:49.621Z,14.20
2018-04-22T05:07:16.249Z,14.20
2018-04-22T05:09:42.480Z,14.20
2018-04-22T05:12:09.076Z,14.30
2018-04-22T05:14:35.330Z,14.30
2018-04-22T05:17:01.534Z,14.20
2018-04-22T05:19:27.750Z,14.20
2018-04-22T05:21:55.004Z,14.30
2018-04-22T05:24:21.252Z,14.30
2018-04-22T05:26:47.428Z,14.40
2018-04-22T05:29:13.682Z,14.50
2018-04-22T05:31:39.910Z,14.60
2018-04-22T05:34:06.116Z,14.70
2018-04-22T05:36:32.450Z,14.70
2018-04-22T05:38:58.671Z,14.90
2018-04-22T05:41:24.894Z,15.00
2018-04-22T05:43:51.744Z,14.90
2018-04-22T05:46:17.988Z,14.90
2018-04-22T05:48:44.292Z,14.80
2018-04-22T05:51:10.487Z,14.80
2018-04-22T05:53:36.682Z,15.10
2018-04-22T05:56:02.897Z,15.20
2018-04-22T05:58:29.127Z,15.20
2018-04-22T06:00:55.348Z,15.40
2018-04-22T06:03:21.560Z,15.50
2018-04-22T06:05:48.194Z,15.40
2018-04-22T06:08:14.768Z,15.50
2018-04-22T06:10:41.022Z,15.50
2018-04-22T06:13:07.287Z,15.60
2018-04-22T06:15:33.939Z,15.60
2018-04-22T06:18:00.165Z,15.60
2018-04-22T06:20:26.464Z,15.60
2018-04-22T06:22:52.739Z,15.60
2018-04-22T06:25:19.358Z,15.50
2018-04-22T06:27:45.616Z,15.50
2018-04-22T06:30:11.838Z,15.60
2018-04-22T06:32:38.063Z,15.70
2018-04-22T06:35:04.315Z,15.90
2018-04-22T06:37:30.539Z,15.80
2018-04-22T06:39:56.756Z,16.00
2018-04-22T06:42:23.083Z,16.10
2018-04-22T06:44:49.342Z,16.30
2018-04-22T06:47:16.424Z,16.20
2018-04-22T06:49:42.707Z,16.20
2018-04-22T06:52:08.918Z,16.40
2018-04-22T06:54:35.179Z,16.40
2018-04-22T06:57:01.444Z,16.40
2018-04-22T06:59:27.654Z,16.50
2018-04-22T07:01:54.285Z,16.70
2018-04-22T07:04:20.500Z,16.80
2018-04-22T07:06:46.715Z,16.80
2018-04-22T07:09:12.973Z,16.60
2018-04-22T07:11:39.202Z,16.40
2018-04-22T07:14:05.422Z,16.70
2018-04-22T07:16:31.722Z,16.80
2018-04-22T07:18:58.997Z,17.10
2018-04-22T07:21:25.354Z,17.30
2018-04-22T07:23:51.955Z,17.40
2018-04-22T07:26:18.260Z,17.40
2018-04-22T07:28:44.513Z,17.30
2018-04-22T07:31:10.791Z,17.20
2018-04-22T07:33:37.040Z,17.20
2018-04-22T07:36:03.418Z,17.50
2018-04-22T07:38:29.721Z,17.60
2018-04-22T07:40:55.987Z,17.70
2018-04-22T07:43:22.244Z,17.60
2018-04-22T07:45:48.517Z,17.70
2018-04-22T07:48:14.757Z,18.10
2018-04-22T07:50:41.041Z,18.30
2018-04-22T07:53:07.278Z,18.40
2018-04-22T07:55:33.529Z,18.40
2018-04-22T07:57:59.746Z,18.40
2018-04-22T08:00:26.005Z,18.60
2018-04-22T08:02:52.296Z,18.70
2018-04-22T08:05:19.644Z,18.90
2018-04-22T08:07:45.887Z,18.80
2018-04-22T08:10:12.152Z,18.90
2018-04-22T08:12:38.372Z,18.80
2018-04-22T08:15:04.703Z,19.10
2018-04-22T08:17:30.935Z,19.30
2018-04-22T08:19:57.188Z,19.30
2018-04-22T08:22:23.828Z,19.40
2018-04-22T08:24:50.075Z,19.40
2018-04-22T08:27:16.324Z,19.50
2018-04-22T08:29:42.607Z,19.70
2018-04-22T08:32:08.883Z,19.80
2018-04-22T08:34:35.286Z,19.90
2018-04-22T08:37:02.651Z,19.90
2018-04-22T08:39:28.966Z,19.70
2018-04-22T08:41:55.221Z,19.80
2018-04-22T08:44:21.443Z,20.00
2018-04-22T08:46:47.722Z,20.00
2018-04-22T08:49:13.945Z,20.20
2018-04-22T08:51:40.187Z,20.30
2018-04-22T08:54:06.453Z,20.50
2018-04-22T08:56:32.936Z,20.60
2018-04-22T08:59:00.765Z,20.60
2018-04-22T09:01:27.937Z,20.60
2018-04-22T09:03:54.233Z,20.60
2018-04-22T09:06:20.495Z,20.70
2018-04-22T09:08:46.756Z,20.90
2018-04-22T09:11:13.043Z,21.20
2018-04-22T09:13:40.134Z,21.30
2018-04-22T09:16:06.431Z,21.30
2018-04-22T09:18:32.684Z,21.30
2018-04-22T09:20:59.100Z,21.50
2018-04-22T09:23:25.480Z,21.70
2018-04-22T09:25:52.054Z,22.00
2018-04-22T09:28:18.347Z,22.00
2018-04-22T09:30:44.601Z,22.00
2018-04-22T09:33:10.940Z,22.20
2018-04-22T09:35:37.144Z,22.40
2018-04-22T09:38:03.375Z,22.50
2018-04-22T09:40:29.692Z,22.40
2018-04-22T09:42:56.005Z,22.40
2018-04-22T09:45:22.227Z,22.60
2018-04-22T09:47:48.510Z,22.70
2018-04-22T09:50:14.763Z,22.80
2018-04-22T09:52:40.997Z,23.10
2018-04-22T09:55:07.257Z,23.20
2018-04-22T09:57:33.901Z,23.10
2018-04-22T10:00:00.528Z,23.50
2018-04-22T10:02:32.064Z,23.50
2018-04-22T10:05:04.307Z,23.60
2018-04-22T10:07:31.357Z,23.70
2018-04-22T10:09:57.642Z,23.80
2018-04-22T10:12:23.925Z,23.90
2018-04-22T10:14:50.144Z,24.10
2018-04-22T10:17:16.421Z,24.10
2018-04-22T10:19:43.048Z,24.30
2018-04-22T10:22:09.744Z,24.50
2018-04-22T10:24:36.949Z,24.50
2018-04-22T10:27:03.227Z,24.70
2018-04-22T10:29:29.588Z,25.00
2018-04-22T10:31:55.869Z,24.90
2018-04-22T10:34:22.191Z,24.80
2018-04-22T10:36:48.400Z,24.90
2018-04-22T10:39:14.662Z,25.30
2018-04-22T10:41:40.890Z,25.60
2018-04-22T10:44:07.129Z,25.70
2018-04-22T10:46:33.458Z,26.00
2018-04-22T10:48:59.694Z,26.20
2018-04-22T10:51:26.132Z,26.50
2018-04-22T10:53:52.463Z,26.80
2018-04-22T10:56:18.702Z,26.90
2018-04-22T10:58:45.008Z,26.90
2018-04-22T11:01:11.273Z,27.20
2018-04-22T11:03:37.494Z,27.70
2018-04-22T11:06:04.417Z,27.90
2018-04-22T11:08:30.679Z,28.20
2018-04-22T11:10:57.288Z,28.50
2018-04-22T11:13:23.535Z,28.60
2018-04-22T11:15:49.781Z,29.00
2018-04-22T11:18:16.486Z,29.50
2018-04-22T11:20:42.739Z,29.50
2018-04-22T11:23:09.026Z,29.60
2018-04-22T11:25:35.290Z,29.80
2018-04-22T11:28:01.527Z,29.70
2018-04-22T11:30:27.771Z,29.80
2018-04-22T11:32:53.992Z,29.90
2018-04-22T11:35:20.602Z,30.50
2018-04-22T11:37:46.866Z,30.50
2018-04-22T11:40:14.753Z,30.70
2018-04-22T11:42:40.983Z,31.10
2018-04-22T11:45:07.256Z,31.00
2018-04-22T11:47:33.507Z,30.70
2018-04-22T11:50:00.087Z,31.80
2018-04-22T11:52:26.330Z,31.90
2018-04-22T11:54:52.631Z,32.10
2018-04-22T11:57:18.828Z,31.90
2018-04-22T11:59:45.462Z,32.30
2018-04-22T12:02:12.100Z,32.70
2018-04-22T12:04:38.338Z,32.70
2018-04-22T12:07:04.569Z,32.70
2018-04-22T12:09:30.825Z,32.50
2018-04-22T12:11:57.105Z,32.60
2018-04-22T12:14:23.327Z,32.90
2018-04-22T12:16:49.590Z,33.20
2018-04-22T12:19:15.811Z,33.60
2018-04-22T12:21:42.455Z,34.10
2018-04-22T12:24:08.683Z,34.10
2018-04-22T12:26:34.986Z,34.10
2018-04-22T12:29:01.206Z,33.80
2018-04-22T12:31:27.444Z,33.50
2018-04-22T12:33:54.063Z,32.30
2018-04-22T12:36:20.864Z,32.30
2018-04-22T12:38:47.127Z,32.20
2018-04-22T12:41:13.355Z,32.10
2018-04-22T12:43:39.618Z,32.50
2018-04-22T12:46:05.838Z,32.70
2018-04-22T12:48:32.068Z,32.70
2018-04-22T12:50:58.339Z,33.40
2018-04-22T12:53:24.603Z,33.50
2018-04-22T12:55:50.827Z,33.70
2018-04-22T12:58:17.037Z,33.70
2018-04-22T13:00:43.257Z,33.80
2018-04-22T13:03:09.525Z,33.60
2018-04-22T13:05:35.819Z,33.90
2018-04-22T13:08:02.118Z,33.70
2018-04-22T13:10:28.347Z,33.50
2018-04-22T13:12:54.548Z,33.60
2018-04-22T13:15:20.777Z,33.80
2018-04-22T13:17:47.011Z,34.20
2018-04-22T13:20:13.219Z,34.40
2018-04-22T13:22:39.459Z,34.40
2018-04-22T13:25:05.675Z,34.00
2018-04-22T13:27:31.918Z,34.00
2018-04-22T13:29:58.210Z,33.50
2018-04-22T13:32:24.449Z,33.50
2018-04-22T13:34:50.713Z,33.70
2018-04-22T13:37:17.309Z,33.90
2018-04-22T13:39:43.564Z,33.90
2018-04-22T13:42:09.803Z,34.20
2018-04-22T13:44:36.459Z,35.00
2018-04-22T13:47:02.737Z,35.00
2018-04-22T13:49:28.999Z,34.90
2018-04-22T13:51:55.585Z,33.60
2018-04-22T13:54:21.882Z,33.60
2018-04-22T13:56:48.088Z,33.60
2018-04-22T13:59:14.711Z,32.80
2018-04-22T14:01:40.928Z,32.80
2018-04-22T14:04:07.190Z,32.40
2018-04-22T14:06:33.399Z,31.90
2018-04-22T14:08:59.654Z,31.10
2018-04-22T14:11:25.913Z,30.40
2018-04-22T14:13:52.188Z,30.10
2018-04-22T14:16:18.469Z,29.80
2018-04-22T14:18:44.694Z,29.60
2018-04-22T14:21:10.993Z,29.40
2018-04-22T14:23:37.194Z,29.10
2018-04-22T14:26:03.594Z,29.00
2018-04-22T14:28:29.859Z,29.10
2018-04-22T14:30:56.146Z,29.10
2018-04-22T14:33:22.440Z,29.10
2018-04-22T14:35:49.096Z,28.80
2018-04-22T14:38:15.336Z,28.80
2018-04-22T14:40:41.583Z,28.70
2018-04-22T14:43:07.815Z,28.70
2018-04-22T14:45:46.223Z,28.70
2018-04-22T14:48:12.469Z,28.20
2018-04-22T14:50:38.722Z,27.90
2018-04-22T14:53:04.952Z,27.80
2018-04-22T14:55:31.594Z,27.70
2018-04-22T14:57:58.167Z,27.70
2018-04-22T15:00:24.417Z,27.70
2018-04-22T15:02:50.652Z,27.30
2018-04-22T15:05:16.986Z,26.90
2018-04-22T15:07:43.161Z,26.80
2018-04-22T15:10:09.416Z,26.60
2018-04-22T15:12:35.650Z,26.30
2018-04-22T15:15:01.894Z,26.30
2018-04-22T15:17:28.149Z,26.30
2018-04-22T15:19:54.637Z,26.30
2018-04-22T15:22:20.853Z,26.10
2018-04-22T15:24:47.090Z,26.10
2018-04-22T15:27:13.322Z,26.20
2018-04-22T15:29:39.593Z,26.10
2018-04-22T15:32:05.836Z,26.00
2018-04-22T15:34:32.444Z,25.90
2018-04-22T15:36:58.713Z,25.90
2018-04-22T15:39:25.312Z,25.40
2018-04-22T15:41:51.572Z,25.30
2018-04-22T15:44:18.169Z,25.40
2018-04-22T15:46:44.437Z,25.40
2018-04-22T15:49:11.018Z,25.00
2018-04-22T15:51:37.319Z,25.00
2018-04-22T15:54:03.913Z,24.70
2018-04-22T15:56:30.173Z,24.70
2018-04-22T15:58:56.803Z,24.50
2018-04-22T16:01:23.458Z,24.50
2018-04-22T16:03:49.674Z,24.60
2018-04-22T16:06:16.307Z,25.00
2018-04-22T16:08:42.895Z,25.00
2018-04-22T16:11:09.132Z,25.00
2018-04-22T16:13:35.374Z,25.00
2018-04-22T16:16:01.602Z,25.00
2018-04-22T16:18:28.679Z,25.00
2018-04-22T16:20:55.539Z,25.10
2018-04-22T16:23:21.791Z,25.10
2018-04-22T16:25:48.126Z,25.00
2018-04-22T16:28:14.355Z,24.90
2018-04-22T16:30:40.676Z,25.00
2018-04-22T16:33:06.931Z,25.00
2018-04-22T16:35:33.161Z,25.10
2018-04-22T16:37:59.396Z,25.20
2018-04-22T16:40:25.632Z,25.00
2018-04-22T16:42:51.870Z,24.90
2018-04-22T16:45:18.480Z,25.00
2018-04-22T16:47:44.736Z,25.00
2018-04-22T16:50:11.003Z,25.20
2018-04-22T16:52:37.236Z,25.50
2018-04-22T16:55:03.485Z,25.60
2018-04-22T16:57:30.596Z,25.70
2018-04-22T16:59:56.840Z,25.90
2018-04-22T17:02:23.106Z,26.00
2018-04-22T17:04:49.307Z,26.10
2018-04-22T17:07:15.581Z,26.30
2018-04-22T17:09:41.972Z,26.40
2018-04-22T17:12:08.228Z,26.60
2018-04-22T17:14:34.522Z,26.70
2018-04-22T17:17:00.794Z,26.80
2018-04-22T17:19:27.041Z,26.60
2018-04-22T17:21:53.643Z,26.50
2018-04-22T17:24:19.902Z,26.50
2018-04-22T17:26:46.557Z,26.40
2018-04-22T17:29:13.163Z,26.20
2018-04-22T17:31:39.443Z,26.30
2018-04-22T17:34:05.677Z,26.40
2018-04-22T17:36:31.899Z,26.30
2018-04-22T17:38:58.172Z,26.30
2018-04-22T17:41:24.402Z,26.30
2018-04-22T17:43:50.631Z,26.20
2018-04-22T17:46:16.856Z,26.10
2018-04-22T17:48:43.134Z,25.90
2018-04-22T17:51:09.391Z,25.80
2018-04-22T17:53:35.721Z,25.80
2018-04-22T17:56:02.051Z,25.60
2018-04-22T17:58:28.294Z,25.50
2018-04-22T18:00:54.541Z,25.20
2018-04-22T18:03:20.867Z,25.00
2018-04-22T18:05:47.149Z,24.80
2018-04-22T18:08:13.419Z,24.70
2018-04-22T18:10:39.642Z,24.60
2018-04-22T18:13:06.286Z,24.20
2018-04-22T18:15:32.560Z,24.20
2018-04-22T18:17:58.812Z,24.10
2018-04-22T18:20:25.092Z,23.90
2018-04-22T18:22:51.339Z,23.70
2018-04-22T18:25:17.591Z,23.60
2018-04-22T18:27:43.895Z,23.40
2018-04-22T18:30:10.563Z,23.10
2018-04-22T18:32:36.853Z,23.00
2018-04-22T18:35:03.092Z,22.90
2018-04-22T18:37:29.345Z,22.80
2018-04-22T18:39:55.588Z,22.70
2018-04-22T18:42:21.809Z,22.50
2018-04-22T18:44:48.073Z,22.40
2018-04-22T18:47:14.321Z,22.40
2018-04-22T18:49:41.980Z,22.30
2018-04-22T18:52:08.593Z,22.20
2018-04-22T18:54:34.897Z,22.20
2018-04-22T18:57:01.142Z,22.10
2018-04-22T18:59:27.373Z,22.10
2018-04-22T19:01:53.637Z,22.00
2018-04-22T19:04:19.925Z,22.00
2018-04-22T19:06:46.251Z,21.80
2018-04-22T19:09:12.526Z,21.70
2018-04-22T19:11:39.142Z,21.50
2018-04-22T19:14:05.424Z,21.50
2018-04-22T19:16:31.697Z,21.40
2018-04-22T19:18:57.986Z,21.30
2018-04-22T19:21:24.224Z,21.20
2018-04-22T19:23:50.590Z,21.20
2018-04-22T19:26:17.282Z,21.00
2018-04-22T19:28:43.549Z,21.00
2018-04-22T19:31:09.778Z,20.90
2018-04-22T19:33:36.802Z,20.80
2018-04-22T19:36:03.050Z,20.70
2018-04-22T19:38:30.139Z,20.60
2018-04-22T19:40:56.441Z,20.50
2018-04-22T19:43:22.661Z,20.50
2018-04-22T19:45:48.896Z,20.40
2018-04-22T19:48:15.191Z,20.40
2018-04-22T19:50:41.438Z,20.30
2018-04-22T19:53:07.682Z,20.30
2018-04-22T19:55:33.927Z,20.20
2018-04-22T19:58:00.538Z,20.10
2018-04-22T20:00:26.791Z,20.10
2018-04-22T20:02:53.103Z,20.00
2018-04-22T20:05:19.417Z,20.00
2018-04-22T20:07:45.660Z,19.90
2018-04-22T20:10:11.911Z,19.80
2018-04-22T20:12:38.154Z,19.80
2018-04-22T20:15:05.756Z,19.70
2018-04-22T20:17:32.017Z,19.70
2018-04-22T20:19:58.244Z,19.60
2018-04-22T20:22:24.497Z,19.60
2018-04-22T20:24:50.775Z,19.60
2018-04-22T20:27:17.009Z,19.50
2018-04-22T20:29:43.254Z,19.40
2018-04-22T20:32:09.477Z,19.40
2018-04-22T20:34:35.777Z,19.40
2018-04-22T20:37:02.079Z,19.30
2018-04-22T20:39:28.343Z,19.30
2018-04-22T20:41:54.571Z,19.20
2018-04-22T20:44:20.869Z,19.20
2018-04-22T20:46:47.115Z,19.20
2018-04-22T20:49:13.340Z,19.10
2018-04-22T20:51:39.573Z,19.20
2018-04-22T20:54:05.809Z,19.30
2018-04-22T20:56:32.071Z,19.40
2018-04-22T20:58:58.278Z,19.30
2018-04-22T21:01:24.547Z,19.30
2018-04-22T21:03:51.211Z,19.40
2018-04-22T21:06:17.457Z,19.40
2018-04-22T21:08:43.698Z,19.60
2018-04-22T21:11:09.954Z,19.60
2018-04-22T21:13:36.193Z,19.50
2018-04-22T21:16:02.820Z,19.00
2018-04-22T21:18:29.068Z,19.00
2018-04-22T21:21:02.497Z,18.70
2018-04-22T21:23:28.813Z,18.70
2018-04-22T21:25:56.106Z,18.70
2018-04-22T21:28:22.448Z,18.50
2018-04-22T21:30:48.632Z,18.40
2018-04-22T21:33:14.848Z,18.60
2018-04-22T21:35:41.096Z,18.60
2018-04-22T21:38:07.317Z,18.60
2018-04-22T21:40:33.588Z,18.60
2018-04-22T21:42:59.825Z,18.60
2018-04-22T21:45:26.046Z,18.50
2018-04-22T21:47:52.320Z,18.50
2018-04-22T21:50:18.578Z,18.50
2018-04-22T21:52:44.832Z,18.50
2018-04-22T21:55:11.122Z,18.40
2018-04-22T21:57:44.149Z,18.50
2018-04-22T22:00:10.431Z,18.50
2018-04-22T22:02:36.654Z,18.60
2018-04-22T22:05:02.883Z,18.60
2018-04-22T22:07:29.146Z,18.40
2018-04-22T22:09:55.360Z,18.50
2018-04-22T22:12:21.608Z,18.70
2018-04-22T22:14:47.816Z,18.60
2018-04-22T22:17:14.027Z,18.70
2018-04-22T22:19:40.236Z,18.80
2018-04-22T22:22:06.484Z,18.80
2018-04-22T22:24:32.712Z,18.80
2018-04-22T22:26:58.917Z,18.90
2018-04-22T22:29:25.137Z,19.00
2018-04-22T22:31:51.386Z,18.90
2018-04-22T22:34:17.648Z,18.80
2018-04-22T22:36:43.885Z,18.80
2018-04-22T22:39:10.096Z,18.80
2018-04-22T22:41:36.328Z,18.80
2018-04-22T22:44:02.564Z,18.70
2018-04-22T22:46:28.858Z,18.70
2018-04-22T22:48:55.066Z,18.70
2018-04-22T22:51:21.679Z,18.60
2018-04-22T22:53:47.871Z,18.60
2018-04-22T22:56:14.117Z,18.60
2018-04-22T22:58:40.322Z,18.50
2018-04-22T23:01:06.636Z,18.40
2018-04-22T23:03:32.831Z,18.30
2018-04-22T23:05:59.040Z,18.20
2018-04-22T23:08:25.248Z,18.10
2018-04-22T23:10:51.520Z,17.90
2018-04-22T23:13:17.744Z,18.00
2018-04-22T23:15:43.965Z,17.90
2018-04-22T23:18:10.195Z,18.00
2018-04-22T23:20:36.423Z,18.10
2018-04-22T23:23:02.694Z,18.30
2018-04-22T23:25:28.916Z,18.30
2018-04-22T23:27:55.139Z,18.30
2018-04-22T23:30:21.331Z,18.10
2018-04-22T23:32:47.937Z,18.10
2018-04-22T23:35:14.140Z,18.10
2018-04-22T23:37:40.367Z,18.10
2018-04-22T23:40:06.604Z,18.00
2018-04-22T23:42:32.863Z,17.90
2018-04-22T23:44:59.175Z,17.90
2018-04-22T23:47:25.479Z,17.90
2018-04-22T23:49:51.726Z,18.00
2018-04-22T23:52:17.969Z,18.00
2018-04-22T23:54:44.183Z,17.90
2018-04-22T23:57:10.420Z,18.00
2018-04-22T23:59:36.657Z,18.00
